Terminal Aerodrome Forecast
Issued by NWS

Home | Current Version | Previous Version | Text Only | Print | Product List | Glossary On
Versions: 1 2 3 4 5 6 7 8 9 10 11 12
000
FTUS45 KABQ 302341
TAFGUP
TAF
KGUP 302341Z 0100/0124 21008KT P6SM SCT110 BKN200
     FM010300 VRB06KT P6SM FEW200
     FM011800 26008KT P6SM FEW100
     FM012200 28009KT P6SM VCTS SCT100CB BKN150=

USA.gov is the U.S. government's official web portal to all federal, state and local government web resources and services.